Parish, New York
Current Conditions -  °F | °C
As of 10:54 AM on Saturday 22 Nov 2014 (Local Time) from KFZY Reporting Station
Overcast Overcast  
Wind Chill: -3°   Ceiling: 4700
Heat Index:   Visibility: 10mi
Dew Point: -13°   Wind: 9mph
Humidity: 35%   Direction: 180°S
Pressure: 30.17"   Gusts: NA
Location:  43.41°N, 76.13°W
Report Text: KFZY 221554Z AUTO 18008KT 10SM OVC047 01/M13 A3017 RMK AO2 SLP224 T00111128
Loading
Personal Weather Stations






























Interactive Weather Map New forecast layout! Learn more

10-Day Weather Forecast

Advertisements
Track Severe Weather on mobile